Friday, July 20, 2018, 4:46 AM EDT
Back to Local

KDUJ, Du Bois-jefferson County

Location: Reynoldsville, PA, United States Lat: 41.183
Local Time: 4:46 AM EDT ( 8:46 GMT) Lon: -78.883
Time Zone: US/Eastern Elev: 1820 ft

Show me the last for .
Show Decoded

2018-07-20 03:53 METAR KDUJ 200753Z AUTO 11006KT 10SM CLR 16/13 A3009 RMK AO2 SLP180 T01560133 =
2018-07-20 02:53 METAR KDUJ 200653Z AUTO 13006KT 10SM CLR 17/14 A3009 RMK AO2 SLP179 T01670139 =
2018-07-20 01:53 METAR KDUJ 200553Z AUTO 10007KT 10SM CLR 16/14 A3009 RMK AO2 SLP179 T01610139
                 10239 20161 58002 =
2018-07-20 00:53 METAR KDUJ 200453Z AUTO 13003KT 10SM CLR 17/14 A3011 RMK AO2 SLP186 T01720139
                 402610111 =
2018-07-19 23:53 METAR KDUJ 200353Z AUTO 14004KT 10SM CLR 18/14 A3011 RMK AO2 SLP184 T01830144 =
2018-07-19 22:53 METAR KDUJ 200253Z AUTO 12006KT 10SM CLR 19/14 A3010 RMK AO2 SLP181 T01940144
                 50007 =
2018-07-19 21:53 METAR KDUJ 200153Z AUTO 12005KT 10SM CLR 20/14 A3010 RMK AO2 SLP182 T02000144 =
2018-07-19 20:53 METAR KDUJ 200053Z AUTO 13004KT 10SM CLR 21/14 A3008 RMK AO2 SLP176 T02110144 =
2018-07-19 19:53 METAR KDUJ 192353Z AUTO 14003KT 10SM CLR 24/14 A3008 RMK AO2 SLP175 T02390139
                 10261 20233 58005 =
2018-07-19 18:53 METAR KDUJ 192253Z AUTO 19003KT 10SM CLR 25/14 A3008 RMK AO2 SLP177 T02500139 =
2018-07-19 17:53 METAR KDUJ 192153Z AUTO 20005KT 10SM CLR 26/14 A3009 RMK AO2 SLP180 T02560139 =
2018-07-19 16:53 METAR KDUJ 192053Z AUTO 24006KT 10SM CLR 26/14 A3009 RMK AO2 SLP181 T02560139
                 56012 =
2018-07-19 15:53 METAR KDUJ 191953Z AUTO 19003KT 10SM CLR 26/13 A3011 RMK AO2 SLP186 T02560128 =
2018-07-19 14:53 METAR KDUJ 191853Z AUTO VRB03KT 10SM CLR 24/13 A3011 RMK AO2 SLP187 T02440128 =
2018-07-19 13:53 METAR KDUJ 191753Z AUTO 25005KT 10SM FEW047 24/14 A3013 RMK AO2 SLP193 T02440139
                 10244 20144 58007 =
2018-07-19 12:53 METAR KDUJ 191653Z AUTO 25006KT 10SM SCT044 23/13 A3014 RMK AO2 SLP198 T02280133
                 =
2018-07-19 11:53 METAR KDUJ 191553Z AUTO 10SM BKN042 22/13 A3015 RMK AO2 SLP200 T02220133 =
2018-07-19 10:53 METAR KDUJ 191453Z AUTO VRB03KT 10SM CLR 21/12 A3015 RMK AO2 SLP201 T02110122
                 51005 =
2018-07-19 09:53 METAR KDUJ 191353Z AUTO 21003KT 10SM CLR 20/13 A3015 RMK AO2 SLP200 T02000133 =
2018-07-19 08:53 METAR KDUJ 191253Z AUTO VRB03KT 10SM CLR 18/12 A3014 RMK AO2 SLP197 T01780122 $
                 =
2018-07-19 07:53 METAR KDUJ 191153Z AUTO 08005KT 10SM CLR 14/12 A3014 RMK AO2 SLP197 7////
                 T01440122 10150 20111 50005 $ =
2018-07-19 06:53 METAR KDUJ 191053Z AUTO 08003KT 9SM BKN047 13/12 A3014 RMK AO2 SLP198 T01280117
                 $ =
2018-07-19 05:53 METAR KDUJ 190953Z AUTO 06004KT 8SM SCT046 12/12 A3013 RMK AO2 SLP196 T01220117
                 $ =
2018-07-19 04:53 METAR KDUJ 190853Z AUTO 10004KT 10SM SCT044 12/12 A3012 RMK AO2 SLP192 T01220117
                 53003 $ =

Support USWX by starting your Amazon purchase here.